Airfield :
LOGIN :

Register | Disclaimer

   EN    FR    IT 

 










Legend :    VFR   Marginal VFR   IFR   Intensive IFR   Very Intensive IFR
Visi :
Ceiling :
>= 8 km
>= 3000ft
5 to 8 km
1000 to 3000 ft
1500m to 5 km
500 to 1000 ft
800 to 1500m
200 to 500 ft
< 800m
< 200 ft
Symbols :   Thunderstorms  Fog  Heavy snow  Heavy precipitations  Wind > 20 kt
SIGMETs :     Misc.  Thunderstorms  Icing  Turbulence  Mountain Waves  Volcanic Ashes







- Airport Elevation : 458 ft
- Download approach charts


LFSI - St-Dizier

CURRENT METAR :
  • 251130Z AUTO 34010KT 300V020 9999 BKN039 BKN047 BKN054 11/M00 Q1027

EXPIRED METARs :
  • 251100Z AUTO 34016KT 310V010 9999 SCT034 SCT046 BKN054 10/M00 Q1027
  • 251030Z AUTO 34010KT 310V010 9999 BKN025 BKN030 BKN038 09/01 Q1027
  • 251000Z AUTO 34013KT 9999 BKN021 BKN026 BKN050 09/02 Q1027
  • 250930Z AUTO 32007KT 9999 FEW019 SCT042 OVC060 08/02 Q1027
  • 250900Z AUTO 31006KT 260V350 9999 FEW020 OVC062 06/02 Q1027

TAF TAF LFSI
Valid from the 25 at 09:00 until the 26 at 09:00 UTC


250800Z 2509/2609 32010KT 9999 SCT020 BKN050
TEMPO 2512/2517 32015G25KT SCT040TCU SCT060
BECMG 2601/2603 VRB02KT 3000 BR BKN003
PROB40
TEMPO 2603/2608 0800 BCFG BKN001
BECMG 2608/2609 9999 NSW SCT005
No reported NOTAMs for that airfield.



MET'MAP, your aeronautical weather chart ! - Copyright ORBIFLY December 2007 - Disclaimer

ORBIFLY MET'MAP TEAM :

Programming & Development : Alexandra Zaïnal
Concept & Development : Baudouin d'Aumeries
Co-Development & Prog : Marc-Olivier Méhu
Technical & hardware support : Manuel Goepfert

Contact : metmap@orbifly.com




SOURCES & CREDITS :

   NOAA